TimeEDT,TemperatureF,Dew PointF,Humidity,Sea Level PressureIn,VisibilityMPH,Wind Direction,Wind SpeedMPH,Gust SpeedMPH,PrecipitationIn,Events,Conditions,WindDirDegrees,DateUTC
12:53 AM,46.0,37.9,73,29.67,10.0,West,10.4,27.6,0.04,Rain,Light Rain,260,2013-04-01 04:53:00
1:53 AM,45.0,37.9,76,29.65,7.0,SW,10.4,19.6,0.01,Rain,Light Rain,230,2013-04-01 05:53:00
2:26 AM,44.6,37.4,76,29.66,9.0,WNW,9.2,21.9,0.01,Rain,Light Rain,290,2013-04-01 06:26:00
2:53 AM,42.1,37.0,82,29.67,10.0,WNW,9.2,-,0.03,Rain,Light Rain,290,2013-04-01 06:53:00
3:00 AM,42.8,37.4,81,29.65,10.0,NW,6.9,-,0.00,,Overcast,320,2013-04-01 07:00:00
3:20 AM,41.0,35.6,81,29.67,8.0,NW,6.9,-,0.00,,Overcast,310,2013-04-01 07:20:00
3:53 AM,39.0,33.1,79,29.70,9.0,WNW,4.6,-,0.00,Rain,Light Rain,290,2013-04-01 07:53:00
4:26 AM,39.2,33.8,81,29.69,9.0,West,6.9,-,0.00,,Overcast,270,2013-04-01 08:26:00
5:18 AM,37.4,30.2,75,29.72,10.0,WNW,13.8,24.2,N/A,,Overcast,290,2013-04-01 09:18:00
5:44 AM,33.8,28.4,81,29.75,10.0,NW,13.8,21.9,N/A,,Overcast,320,2013-04-01 09:44:00
5:53 AM,34.0,28.0,79,29.77,10.0,NNW,13.8,21.9,N/A,,Overcast,330,2013-04-01 09:53:00
6:50 AM,33.8,26.6,75,29.80,10.0,NW,12.7,23.0,0.00,,Overcast,310,2013-04-01 10:50:00
6:53 AM,33.1,25.0,72,29.82,10.0,NW,17.3,26.5,0.00,,Overcast,320,2013-04-01 10:53:00
7:07 AM,33.8,21.2,60,29.80,10.0,NW,12.7,-,N/A,,Overcast,320,2013-04-01 11:07:00
7:53 AM,32.0,19.0,59,29.86,10.0,NW,12.7,20.7,N/A,,Overcast,310,2013-04-01 11:53:00
8:53 AM,30.9,18.0,59,29.90,10.0,NW,9.2,23.0,N/A,,Overcast,310,2013-04-01 12:53:00
9:53 AM,30.9,16.0,54,29.93,10.0,NW,13.8,21.9,N/A,,Overcast,310,2013-04-01 13:53:00
11:53 AM,33.1,15.1,48,29.96,10.0,NW,15.0,27.6,N/A,,Partly Cloudy,320,2013-04-01 15:53:00
12:53 PM,34.0,15.1,46,29.97,10.0,WNW,15.0,27.6,N/A,,Scattered Clouds,290,2013-04-01 16:53:00
1:53 PM,34.0,14.0,44,29.99,-9999.0,WNW,13.8,24.2,N/A,,Unknown,300,2013-04-01 17:53:00
2:53 PM,35.1,17.1,48,29.99,10.0,West,16.1,24.2,N/A,,Overcast,280,2013-04-01 18:53:00
3:53 PM,33.1,17.1,52,30.00,10.0,West,15.0,23.0,N/A,,Overcast,270,2013-04-01 19:53:00
4:53 PM,34.0,15.1,46,30.00,10.0,WNW,12.7,23.0,N/A,,Overcast,290,2013-04-01 20:53:00
5:53 PM,35.1,12.9,40,30.01,10.0,WNW,17.3,23.0,N/A,,Mostly Cloudy,290,2013-04-01 21:53:00
6:53 PM,34.0,14.0,44,30.01,10.0,WNW,9.2,21.9,N/A,,Clear,300,2013-04-01 22:53:00
7:53 PM,32.0,16.0,52,30.02,10.0,NW,6.9,-,N/A,,Clear,310,2013-04-01 23:53:00
8:53 PM,30.9,17.1,57,30.03,10.0,West,6.9,-,N/A,,Unknown,280,2013-04-02 00:53:00
9:53 PM,30.9,16.0,54,30.04,10.0,NW,8.1,-,N/A,,Overcast,320,2013-04-02 01:53:00
10:53 PM,30.0,18.0,61,30.06,10.0,Variable,5.8,-,N/A,,Overcast,0,2013-04-02 02:53:00
11:53 PM,28.9,15.1,56,30.07,10.0,North,11.5,16.1,N/A,,Overcast,350,2013-04-02 03:53:00